Wailea, Hawaii
Current Conditions -  °F | °C
As of 8:54 AM on Friday 31 Oct 2014 (Local Time) from PHOG Reporting Station
Few Clouds Few Clouds  
Wind Chill: 82°   Ceiling: Unl
Heat Index: 86°   Visibility: 10mi
Dew Point: 70°   Wind: 23mph
Humidity: 67%   Direction: 40°NE
Pressure: 30.06"   Gusts: 31mph
Location:  20.7651°N, 156.425°W
Report Text: PHOG 311854Z 04020G27KT 10SM FEW045 28/21 A3006 RMK AO2 PK WND 04027/1851 SLP183 T02780211
Loading
Personal Weather Stations






























Interactive Weather Map
Tropical Storm Tracking
New forecast layout! Learn more

10-Day Weather Forecast

Advertisements
Track Severe Weather on mobile